createdAt,value
2019-05-20T00:00:44.832Z,11.60
2019-05-20T00:03:14.262Z,11.60
2019-05-20T00:05:43.708Z,11.50
2019-05-20T00:08:13.215Z,11.50
2019-05-20T00:10:42.963Z,11.50
2019-05-20T00:13:12.397Z,11.50
2019-05-20T00:15:41.831Z,11.50
2019-05-20T00:18:11.332Z,11.50
2019-05-20T00:20:40.836Z,11.50
2019-05-20T00:23:10.367Z,11.50
2019-05-20T00:25:39.802Z,11.50
2019-05-20T00:28:09.235Z,11.50
2019-05-20T00:30:38.667Z,11.50
2019-05-20T00:33:08.467Z,11.50
2019-05-20T00:35:37.882Z,11.50
2019-05-20T00:38:07.343Z,11.50
2019-05-20T00:40:36.777Z,11.50
2019-05-20T00:43:06.232Z,11.50
2019-05-20T00:45:35.739Z,11.50
2019-05-20T00:48:05.178Z,11.50
2019-05-20T00:50:35.606Z,11.60
2019-05-20T00:53:05.407Z,11.60
2019-05-20T00:55:35.628Z,11.50
2019-05-20T00:58:05.139Z,11.60
2019-05-20T01:00:35.143Z,11.60
2019-05-20T01:03:04.852Z,11.60
2019-05-20T01:05:34.343Z,11.50
2019-05-20T01:08:03.853Z,11.50
2019-05-20T01:10:33.355Z,11.50
2019-05-20T01:13:02.925Z,11.50
2019-05-20T01:15:32.377Z,11.50
2019-05-20T01:18:01.798Z,11.50
2019-05-20T01:20:31.252Z,11.50
2019-05-20T01:23:01.066Z,11.50
2019-05-20T01:25:30.490Z,11.50
2019-05-20T01:28:00.004Z,11.50
2019-05-20T01:30:29.562Z,11.50
2019-05-20T01:33:12.748Z,11.50
2019-05-20T01:35:30.178Z,11.50
2019-05-20T01:37:59.592Z,11.50
2019-05-20T01:40:29.046Z,11.50
2019-05-20T01:42:58.469Z,11.50
2019-05-20T01:45:27.922Z,11.50
2019-05-20T01:47:57.349Z,11.50
2019-05-20T01:50:26.765Z,11.50
2019-05-20T01:52:56.210Z,11.50
2019-05-20T01:55:25.720Z,11.60
2019-05-20T01:57:55.153Z,11.60
2019-05-20T02:00:24.735Z,11.60
2019-05-20T02:02:54.514Z,11.60
2019-05-20T02:05:23.995Z,11.60
2019-05-20T02:07:53.729Z,11.60
2019-05-20T02:10:23.307Z,11.60
2019-05-20T02:12:53.048Z,11.60
2019-05-20T02:15:24.142Z,11.60
2019-05-20T02:17:53.585Z,11.60
2019-05-20T02:20:23.008Z,11.60
2019-05-20T02:22:54.425Z,11.60
2019-05-20T02:25:24.230Z,11.60
2019-05-20T02:27:53.683Z,11.50
2019-05-20T02:30:23.119Z,11.60
2019-05-20T02:32:52.531Z,11.60
2019-05-20T02:35:22.040Z,11.50
2019-05-20T02:37:51.462Z,11.50
2019-05-20T02:40:21.341Z,11.50
2019-05-20T02:42:50.775Z,11.50
2019-05-20T02:45:20.508Z,11.40
2019-05-20T02:47:49.972Z,11.40
2019-05-20T02:50:19.631Z,11.40
2019-05-20T02:52:49.450Z,11.40
2019-05-20T02:55:18.940Z,11.40
2019-05-20T02:57:48.444Z,11.40
2019-05-20T03:00:18.254Z,11.40
2019-05-20T03:02:47.675Z,11.30
2019-05-20T03:05:17.509Z,11.30
2019-05-20T03:07:46.918Z,11.30
2019-05-20T03:10:16.599Z,11.30
2019-05-20T03:12:46.021Z,11.30
2019-05-20T03:15:15.884Z,11.30
2019-05-20T03:17:45.326Z,11.30
2019-05-20T03:20:15.149Z,11.30
2019-05-20T03:22:45.023Z,11.30
2019-05-20T03:25:15.278Z,11.20
2019-05-20T03:27:44.814Z,11.20
2019-05-20T03:30:14.647Z,11.20
2019-05-20T03:32:44.090Z,11.20
2019-05-20T03:35:13.719Z,11.20
2019-05-20T03:37:43.460Z,11.20
2019-05-20T03:40:13.450Z,11.20
2019-05-20T03:42:42.856Z,11.20
2019-05-20T03:45:12.791Z,11.20
2019-05-20T03:47:42.284Z,11.20
2019-05-20T03:50:12.109Z,11.20
2019-05-20T03:52:41.585Z,11.20
2019-05-20T03:55:11.144Z,11.20
2019-05-20T03:57:40.632Z,11.20
2019-05-20T04:00:10.385Z,11.20
2019-05-20T04:02:39.813Z,11.10
2019-05-20T04:05:09.718Z,11.10
2019-05-20T04:07:39.151Z,11.10
2019-05-20T04:10:08.710Z,11.10
2019-05-20T04:12:38.169Z,11.10
2019-05-20T04:15:08.125Z,11.10
2019-05-20T04:17:37.674Z,11.10
2019-05-20T04:20:08.351Z,11.10
2019-05-20T04:22:39.865Z,11.10
2019-05-20T04:25:09.151Z,11.10
2019-05-20T04:27:38.583Z,11.10
2019-05-20T04:30:08.838Z,11.10
2019-05-20T04:32:38.637Z,11.10
2019-05-20T04:35:21.250Z,11.10
2019-05-20T04:37:39.928Z,11.10
2019-05-20T04:40:10.084Z,11.10
2019-05-20T04:42:39.537Z,11.10
2019-05-20T04:45:09.795Z,11.10
2019-05-20T04:47:39.221Z,11.10
2019-05-20T04:50:09.464Z,11.10
2019-05-20T04:52:38.900Z,11.20
2019-05-20T04:55:08.765Z,11.20
2019-05-20T04:57:38.182Z,11.20
2019-05-20T05:00:09.932Z,11.20
2019-05-20T05:02:43.229Z,11.20
2019-05-20T05:05:11.005Z,11.20
2019-05-20T05:07:40.606Z,11.30
2019-05-20T05:10:12.341Z,11.30
2019-05-20T05:12:41.863Z,11.30
2019-05-20T05:15:11.900Z,11.30
2019-05-20T05:17:41.371Z,11.20
2019-05-20T05:20:18.086Z,11.20
2019-05-20T05:22:42.888Z,11.20
2019-05-20T05:25:12.581Z,11.20
2019-05-20T05:27:41.994Z,11.20
2019-05-20T05:30:11.820Z,11.20
2019-05-20T05:32:41.577Z,11.20
2019-05-20T05:35:14.282Z,11.20
2019-05-20T05:37:43.931Z,11.20
2019-05-20T05:40:15.053Z,11.20
2019-05-20T05:42:44.583Z,11.20
2019-05-20T05:45:15.339Z,11.20
2019-05-20T05:47:44.786Z,11.20
2019-05-20T05:50:14.714Z,11.20
2019-05-20T05:52:44.496Z,11.10
2019-05-20T05:55:14.182Z,11.20
2019-05-20T05:57:44.013Z,11.20
2019-05-20T06:00:13.604Z,11.20
2019-05-20T06:02:43.288Z,11.20
2019-05-20T06:05:12.873Z,11.20
2019-05-20T06:07:42.381Z,11.20
2019-05-20T06:10:13.117Z,11.20
2019-05-20T06:12:42.637Z,11.30
2019-05-20T06:15:12.700Z,11.30
2019-05-20T06:17:42.134Z,11.30
2019-05-20T06:20:12.398Z,11.30
2019-05-20T06:22:41.905Z,11.30
2019-05-20T06:25:12.946Z,11.30
2019-05-20T06:27:42.380Z,11.40
2019-05-20T06:30:17.331Z,11.40
2019-05-20T06:32:46.760Z,11.40
2019-05-20T06:35:16.885Z,11.40
2019-05-20T06:37:48.315Z,11.40
2019-05-20T06:40:18.135Z,11.50
2019-05-20T06:42:47.610Z,11.50
2019-05-20T06:45:17.342Z,11.50
2019-05-20T06:47:46.852Z,11.50
2019-05-20T06:50:16.966Z,11.50
2019-05-20T06:52:46.383Z,11.50
2019-05-20T06:55:16.055Z,11.60
2019-05-20T06:57:45.480Z,11.50
2019-05-20T07:00:22.140Z,11.60
2019-05-20T07:02:52.220Z,11.50
2019-05-20T07:05:21.798Z,11.60
2019-05-20T07:07:51.239Z,11.60
2019-05-20T07:10:20.732Z,11.60
2019-05-20T07:12:50.210Z,11.60
2019-05-20T07:15:19.979Z,11.60
2019-05-20T07:17:51.749Z,11.70
2019-05-20T07:20:20.746Z,11.70
2019-05-20T07:22:55.622Z,11.70
2019-05-20T07:25:21.945Z,11.70
2019-05-20T07:27:51.642Z,11.80
2019-05-20T07:30:21.320Z,11.80
2019-05-20T07:32:50.832Z,11.80
2019-05-20T07:35:30.109Z,11.80
2019-05-20T07:37:51.564Z,11.80
2019-05-20T07:40:32.260Z,11.90
2019-05-20T07:43:02.423Z,11.90
2019-05-20T07:45:34.920Z,12.00
2019-05-20T07:48:06.262Z,12.00
2019-05-20T07:50:38.146Z,12.00
2019-05-20T07:53:08.996Z,12.00
2019-05-20T07:56:09.771Z,12.00
2019-05-20T07:58:42.563Z,12.00
2019-05-20T08:01:12.552Z,12.10
2019-05-20T08:03:42.043Z,12.10
2019-05-20T08:06:11.609Z,12.20
2019-05-20T08:08:41.195Z,12.30
2019-05-20T08:11:10.686Z,12.40
2019-05-20T08:13:40.119Z,12.40
2019-05-20T08:16:09.621Z,12.40
2019-05-20T08:18:39.043Z,12.40
2019-05-20T08:21:08.864Z,12.50
2019-05-20T08:23:38.319Z,12.50
2019-05-20T08:26:08.038Z,12.60
2019-05-20T08:28:37.496Z,12.70
2019-05-20T08:31:07.087Z,12.70
2019-05-20T08:33:36.612Z,12.70
2019-05-20T08:36:06.243Z,12.80
2019-05-20T08:38:35.790Z,12.80
2019-05-20T08:41:05.277Z,12.80
2019-05-20T08:43:34.793Z,12.80
2019-05-20T08:46:04.651Z,12.80
2019-05-20T08:48:34.146Z,12.80
2019-05-20T08:51:03.756Z,12.70
2019-05-20T08:53:33.186Z,12.70
2019-05-20T08:56:02.644Z,12.70
2019-05-20T08:58:32.156Z,12.80
2019-05-20T09:01:01.593Z,12.80
2019-05-20T09:03:31.387Z,12.80
2019-05-20T09:06:01.179Z,12.70
2019-05-20T09:08:30.713Z,12.60
2019-05-20T09:11:00.123Z,12.60
2019-05-20T09:13:30.001Z,12.50
2019-05-20T09:15:59.493Z,12.50
2019-05-20T09:18:28.944Z,12.60
2019-05-20T09:20:58.412Z,12.60
2019-05-20T09:23:27.832Z,12.50
2019-05-20T09:25:57.347Z,12.60
2019-05-20T09:28:26.837Z,12.60
2019-05-20T09:30:56.408Z,12.60
2019-05-20T09:33:26.616Z,12.70
2019-05-20T09:35:56.417Z,12.70
2019-05-20T09:38:25.868Z,12.80
2019-05-20T09:40:55.410Z,12.80
2019-05-20T09:43:30.897Z,12.80
2019-05-20T09:46:07.673Z,12.70
2019-05-20T09:48:31.696Z,12.70
2019-05-20T09:51:01.475Z,12.80
2019-05-20T09:53:31.100Z,12.80
2019-05-20T09:56:00.839Z,12.80
2019-05-20T09:58:30.249Z,12.90
2019-05-20T10:00:59.698Z,13.00
2019-05-20T10:03:29.124Z,13.10
2019-05-20T10:05:58.702Z,13.10
2019-05-20T10:08:38.064Z,13.10
2019-05-20T10:11:00.472Z,13.20
2019-05-20T10:13:30.108Z,13.20
2019-05-20T10:15:59.663Z,13.20
2019-05-20T10:18:37.563Z,13.10
2019-05-20T10:21:00.388Z,13.10
2019-05-20T10:23:29.879Z,13.00
2019-05-20T10:25:59.367Z,13.00
2019-05-20T10:28:29.062Z,12.90
2019-05-20T10:30:58.596Z,12.90
2019-05-20T10:33:28.364Z,13.00
2019-05-20T10:35:57.780Z,13.10
2019-05-20T10:38:27.233Z,13.00
2019-05-20T10:40:56.700Z,13.10
2019-05-20T10:43:26.174Z,13.10
2019-05-20T10:45:56.074Z,13.10
2019-05-20T10:48:25.889Z,13.10
2019-05-20T10:50:55.313Z,13.10
2019-05-20T10:53:28.138Z,13.00
2019-05-20T10:55:56.027Z,12.90
2019-05-20T10:58:25.545Z,12.90
2019-05-20T11:01:02.646Z,12.90
2019-05-20T11:03:26.497Z,13.00
2019-05-20T11:05:55.954Z,13.00
2019-05-20T11:08:27.882Z,13.00
2019-05-20T11:10:56.936Z,13.10
2019-05-20T11:13:26.435Z,13.10
2019-05-20T11:15:55.887Z,13.20
2019-05-20T11:18:25.309Z,13.30
2019-05-20T11:20:55.050Z,13.30
2019-05-20T11:23:24.486Z,13.30
2019-05-20T11:25:53.901Z,13.40
2019-05-20T11:28:23.393Z,13.50
2019-05-20T11:30:52.909Z,13.50
2019-05-20T11:33:22.343Z,13.40
2019-05-20T11:35:51.794Z,13.40
2019-05-20T11:38:21.276Z,13.40
2019-05-20T11:40:50.882Z,13.30
2019-05-20T11:43:20.652Z,13.40
2019-05-20T11:45:50.095Z,13.40
2019-05-20T11:48:19.534Z,13.40
2019-05-20T11:50:48.949Z,13.40
2019-05-20T11:53:18.479Z,13.50
2019-05-20T11:55:47.898Z,13.60
2019-05-20T11:58:17.405Z,13.60
2019-05-20T12:00:46.832Z,13.50
2019-05-20T12:03:16.253Z,13.50
2019-05-20T12:05:45.706Z,13.30
2019-05-20T12:08:15.564Z,13.20
2019-05-20T12:10:45.578Z,13.20
2019-05-20T12:13:14.980Z,13.20
2019-05-20T12:15:44.400Z,13.20
2019-05-20T12:18:13.848Z,13.40
2019-05-20T12:20:43.345Z,13.40
2019-05-20T12:23:12.795Z,13.50
2019-05-20T12:25:42.278Z,13.50
2019-05-20T12:28:11.816Z,13.50
2019-05-20T12:30:41.508Z,13.60
2019-05-20T12:33:18.498Z,13.60
2019-05-20T12:35:42.178Z,13.60
2019-05-20T12:38:11.605Z,13.70
2019-05-20T12:40:41.610Z,13.60
2019-05-20T12:43:11.121Z,13.60
2019-05-20T12:45:40.535Z,13.60
2019-05-20T12:48:09.977Z,13.50
2019-05-20T12:50:39.425Z,13.40
2019-05-20T12:53:08.879Z,13.40
2019-05-20T12:55:38.641Z,13.50
2019-05-20T12:58:08.069Z,13.50
2019-05-20T13:00:37.519Z,13.60
2019-05-20T13:03:06.957Z,13.60
2019-05-20T13:05:36.413Z,13.60
2019-05-20T13:08:05.994Z,13.60
2019-05-20T13:10:35.472Z,13.50
2019-05-20T13:13:04.924Z,13.50
2019-05-20T13:15:34.471Z,13.40
2019-05-20T13:18:04.205Z,13.50
2019-05-20T13:20:33.969Z,13.50
2019-05-20T13:23:06.592Z,13.40
2019-05-20T13:25:35.050Z,13.40
2019-05-20T13:28:04.591Z,13.40
2019-05-20T13:30:34.177Z,13.40
2019-05-20T13:33:03.868Z,13.30
2019-05-20T13:35:33.432Z,13.30
2019-05-20T13:38:03.140Z,13.40
2019-05-20T13:40:45.911Z,13.40
2019-05-20T13:43:03.745Z,13.50
2019-05-20T13:45:33.788Z,13.50
2019-05-20T13:48:03.544Z,13.50
2019-05-20T13:50:32.983Z,13.50
2019-05-20T13:53:02.478Z,13.50
2019-05-20T13:55:32.256Z,13.50
2019-05-20T13:58:01.706Z,13.50
2019-05-20T14:00:31.216Z,13.40
2019-05-20T14:03:00.809Z,13.50
2019-05-20T14:05:30.364Z,13.50
2019-05-20T14:07:59.784Z,13.50
2019-05-20T14:10:29.223Z,13.50
2019-05-20T14:12:58.676Z,13.60
2019-05-20T14:15:28.238Z,13.60
2019-05-20T14:17:58.047Z,13.70
2019-05-20T14:20:27.543Z,13.60
2019-05-20T14:22:56.973Z,13.60
2019-05-20T14:25:29.117Z,13.60
2019-05-20T14:27:57.560Z,13.60
2019-05-20T14:30:27.003Z,13.60
2019-05-20T14:32:56.440Z,13.60
2019-05-20T14:35:25.849Z,13.60
2019-05-20T14:37:55.292Z,13.60
2019-05-20T14:40:24.715Z,13.60
2019-05-20T14:42:54.159Z,13.50
2019-05-20T14:45:23.606Z,13.50
2019-05-20T14:47:53.026Z,13.40
2019-05-20T14:50:22.461Z,13.40
2019-05-20T14:52:51.941Z,13.40
2019-05-20T14:55:21.456Z,13.30
2019-05-20T14:57:50.883Z,13.40
2019-05-20T15:00:20.895Z,13.40
2019-05-20T15:02:50.448Z,13.40
2019-05-20T15:05:19.951Z,13.40
2019-05-20T15:07:49.641Z,13.50
2019-05-20T15:10:19.800Z,13.60
2019-05-20T15:12:49.256Z,13.60
2019-05-20T15:15:18.972Z,13.60
2019-05-20T15:17:48.392Z,13.60
2019-05-20T15:20:17.908Z,13.60
2019-05-20T15:22:47.330Z,13.60
2019-05-20T15:25:17.012Z,13.70
2019-05-20T15:27:49.708Z,13.60
2019-05-20T15:30:18.007Z,13.70
2019-05-20T15:32:47.446Z,13.60
2019-05-20T15:35:17.002Z,13.60
2019-05-20T15:37:46.517Z,13.60
2019-05-20T15:40:17.182Z,13.70
2019-05-20T15:42:46.610Z,13.70
2019-05-20T15:45:18.689Z,13.70
2019-05-20T15:47:48.115Z,13.70
2019-05-20T15:50:18.700Z,13.60
2019-05-20T15:52:48.149Z,13.60
2019-05-20T15:55:17.743Z,13.60
2019-05-20T15:57:47.191Z,13.50
2019-05-20T16:00:17.027Z,13.50
2019-05-20T16:02:46.460Z,13.40
2019-05-20T16:05:16.028Z,13.30
2019-05-20T16:07:45.476Z,13.20
2019-05-20T16:10:15.335Z,13.10
2019-05-20T16:12:44.769Z,13.20
2019-05-20T16:15:14.586Z,13.20
2019-05-20T16:17:48.014Z,13.30
2019-05-20T16:20:15.896Z,13.20
2019-05-20T16:22:45.420Z,13.20
2019-05-20T16:25:15.181Z,13.30
2019-05-20T16:27:44.615Z,13.20
2019-05-20T16:30:14.797Z,13.20
2019-05-20T16:32:44.640Z,13.20
2019-05-20T16:35:14.294Z,13.20
2019-05-20T16:37:43.761Z,13.10
2019-05-20T16:40:13.538Z,13.10
2019-05-20T16:42:44.881Z,13.00
2019-05-20T16:45:15.906Z,13.00
2019-05-20T16:47:45.336Z,13.00
2019-05-20T16:50:17.951Z,13.00
2019-05-20T16:52:47.403Z,13.00
2019-05-20T16:55:17.038Z,12.90
2019-05-20T16:57:46.476Z,13.00
2019-05-20T17:00:30.995Z,13.10
2019-05-20T17:02:47.876Z,13.10
2019-05-20T17:05:17.529Z,13.10
2019-05-20T17:07:46.929Z,13.00
2019-05-20T17:10:16.539Z,13.00
2019-05-20T17:12:45.953Z,12.90
2019-05-20T17:15:16.315Z,12.80
2019-05-20T17:17:45.746Z,12.80
2019-05-20T17:20:15.479Z,12.80
2019-05-20T17:22:44.918Z,12.70
2019-05-20T17:25:14.487Z,12.70
2019-05-20T17:27:43.942Z,12.70
2019-05-20T17:30:13.661Z,12.60
2019-05-20T17:32:43.199Z,12.60
2019-05-20T17:35:13.166Z,12.60
2019-05-20T17:37:42.640Z,12.60
2019-05-20T17:40:12.897Z,12.50
2019-05-20T17:42:42.317Z,12.60
2019-05-20T17:45:14.344Z,12.60
2019-05-20T17:47:43.912Z,12.60
2019-05-20T17:50:14.239Z,12.50
2019-05-20T17:52:43.693Z,12.60
2019-05-20T17:55:13.351Z,12.60
2019-05-20T17:57:43.104Z,12.60
2019-05-20T18:00:15.068Z,12.60
2019-05-20T18:02:44.499Z,12.60
2019-05-20T18:05:15.017Z,12.60
2019-05-20T18:07:44.661Z,12.70
2019-05-20T18:10:16.395Z,12.70
2019-05-20T18:12:45.942Z,12.70
2019-05-20T18:15:22.415Z,12.70
2019-05-20T18:17:47.976Z,12.70
2019-05-20T18:20:17.534Z,12.70
2019-05-20T18:22:47.079Z,12.70
2019-05-20T18:25:16.632Z,12.60
2019-05-20T18:27:46.114Z,12.60
2019-05-20T18:30:16.349Z,12.60
2019-05-20T18:32:45.872Z,12.60
2019-05-20T18:35:15.538Z,12.60
2019-05-20T18:37:44.950Z,12.60
2019-05-20T18:40:16.494Z,12.60
2019-05-20T18:42:45.927Z,12.60
2019-05-20T18:45:15.781Z,12.60
2019-05-20T18:47:45.392Z,12.50
2019-05-20T18:50:15.555Z,12.50
2019-05-20T18:52:45.058Z,12.50
2019-05-20T18:55:14.819Z,12.50
2019-05-20T18:57:44.357Z,12.60
2019-05-20T19:00:14.779Z,12.60
2019-05-20T19:02:44.189Z,12.60
2019-05-20T19:05:13.970Z,12.50
2019-05-20T19:07:43.699Z,12.60
2019-05-20T19:10:15.395Z,12.60
2019-05-20T19:12:44.927Z,12.60
2019-05-20T19:15:16.124Z,12.60
2019-05-20T19:17:45.635Z,12.60
2019-05-20T19:20:15.689Z,12.50
2019-05-20T19:22:45.967Z,12.50
2019-05-20T19:25:15.641Z,12.50
2019-05-20T19:27:45.054Z,12.40
2019-05-20T19:30:15.046Z,12.40
2019-05-20T19:32:44.529Z,12.40
2019-05-20T19:35:14.133Z,12.40
2019-05-20T19:37:43.550Z,12.40
2019-05-20T19:40:13.445Z,12.30
2019-05-20T19:42:42.864Z,12.30
2019-05-20T19:45:12.638Z,12.20
2019-05-20T19:47:42.150Z,12.20
2019-05-20T19:50:12.209Z,12.20
2019-05-20T19:52:41.737Z,12.20
2019-05-20T19:55:11.960Z,12.20
2019-05-20T19:57:41.663Z,12.20
2019-05-20T20:00:11.528Z,12.20
2019-05-20T20:02:40.958Z,12.10
2019-05-20T20:05:10.937Z,12.20
2019-05-20T20:07:40.370Z,12.20
2019-05-20T20:10:10.115Z,12.10
2019-05-20T20:12:39.662Z,12.10
2019-05-20T20:15:11.127Z,12.10
2019-05-20T20:17:40.574Z,12.10
2019-05-20T20:20:10.136Z,12.10
2019-05-20T20:22:39.647Z,12.10
2019-05-20T20:25:09.723Z,12.10
2019-05-20T20:27:39.221Z,12.10
2019-05-20T20:30:09.687Z,12.10
2019-05-20T20:32:39.115Z,12.10
2019-05-20T20:35:09.515Z,12.10
2019-05-20T20:37:38.949Z,12.10
2019-05-20T20:40:08.774Z,12.10
2019-05-20T20:42:38.349Z,12.10
2019-05-20T20:45:08.040Z,12.10
2019-05-20T20:47:41.914Z,12.10
2019-05-20T20:50:09.203Z,12.00
2019-05-20T20:52:38.757Z,12.00
2019-05-20T20:55:08.908Z,12.00
2019-05-20T20:57:38.425Z,12.00
2019-05-20T21:00:11.593Z,12.00
2019-05-20T21:02:52.751Z,12.00
2019-05-20T21:05:12.896Z,12.00
2019-05-20T21:07:42.426Z,12.00
2019-05-20T21:10:12.164Z,11.90
2019-05-20T21:12:41.608Z,11.90
2019-05-20T21:15:12.470Z,11.90
2019-05-20T21:17:41.919Z,11.80
2019-05-20T21:20:11.586Z,11.80
2019-05-20T21:22:40.993Z,11.70
2019-05-20T21:25:10.598Z,11.70
2019-05-20T21:27:40.025Z,11.60
2019-05-20T21:30:10.582Z,11.60
2019-05-20T21:32:40.007Z,11.50
2019-05-20T21:35:09.514Z,11.50
2019-05-20T21:37:39.116Z,11.50
2019-05-20T21:40:09.396Z,11.40
2019-05-20T21:42:38.833Z,11.30
2019-05-20T21:45:08.505Z,11.30
2019-05-20T21:47:38.008Z,11.20
2019-05-20T21:50:08.166Z,11.20
2019-05-20T21:52:37.598Z,11.10
2019-05-20T21:55:09.364Z,11.10
2019-05-20T21:57:38.796Z,11.00
2019-05-20T22:00:10.643Z,11.00
2019-05-20T22:02:40.171Z,10.90
2019-05-20T22:05:09.736Z,10.90
2019-05-20T22:07:39.612Z,10.90
2019-05-20T22:10:09.676Z,10.90
2019-05-20T22:12:39.407Z,11.00
2019-05-20T22:15:09.176Z,11.00
2019-05-20T22:17:38.599Z,11.00
2019-05-20T22:20:08.245Z,10.90
2019-05-20T22:22:39.324Z,10.90
2019-05-20T22:25:08.984Z,11.00
2019-05-20T22:27:38.432Z,11.00
2019-05-20T22:30:10.765Z,11.00
2019-05-20T22:32:40.200Z,11.00
2019-05-20T22:35:09.774Z,10.90
2019-05-20T22:37:39.279Z,11.00
2019-05-20T22:40:09.046Z,11.00
2019-05-20T22:42:38.511Z,11.00
2019-05-20T22:45:08.323Z,11.00
2019-05-20T22:47:37.757Z,11.00
2019-05-20T22:50:07.764Z,11.00
2019-05-20T22:52:37.212Z,10.90
2019-05-20T22:55:07.689Z,10.90
2019-05-20T22:57:39.411Z,10.90
2019-05-20T23:00:10.166Z,10.90
2019-05-20T23:02:39.644Z,10.90
2019-05-20T23:05:09.622Z,10.90
2019-05-20T23:07:39.054Z,11.00
2019-05-20T23:10:09.179Z,11.00
2019-05-20T23:12:38.661Z,11.00
2019-05-20T23:15:09.097Z,11.00
2019-05-20T23:17:38.529Z,11.00
2019-05-20T23:20:08.385Z,11.00
2019-05-20T23:22:37.797Z,11.00
2019-05-20T23:25:07.495Z,11.00
2019-05-20T23:27:36.914Z,11.00
2019-05-20T23:30:08.644Z,11.00
2019-05-20T23:32:38.083Z,11.00
2019-05-20T23:35:08.531Z,11.00
2019-05-20T23:37:37.980Z,11.00
2019-05-20T23:40:07.737Z,11.00
2019-05-20T23:42:37.174Z,11.00
2019-05-20T23:45:11.076Z,11.00
2019-05-20T23:47:40.491Z,11.00
2019-05-20T23:50:10.347Z,11.00
2019-05-20T23:52:39.768Z,11.00
2019-05-20T23:55:13.475Z,11.00
2019-05-20T23:57:43.427Z,11.00
